• Join FlightAware (Why Join?)
  • Login
  • US Flag 
06:02PM EDT


 

Airport Tracker/Info


-or-


 

Live Flight TrackerFlight Track Log ✈ SRY660 ✈ 20-Jun-2013 ✈ KIAG - KCGF

Flight Track Log - Related Links

Times and Time Zones

All times are in EDT time to prevent confusion due to time zone crossing. See the SRY660 flight status page for this flight to view local times or setup timezone preferences in your user account.

Time Position Orientation Groundspeed Altitude Reporting Facility
EDT Latitude Longitude Course Direction KTS MPH feet Rate Location/Type
10:23AM 43.0667 -79.0167 236° Southwest 193 222 3,100  Level Buffalo TRACON
10:24AM 43.0019 -79.0275 187° South 209 241 5,300 2,100 Climbing Cleveland Center
10:25AM 42.9653 -79.0881 230° Southwest 189 217 7,400 2,100 Climbing Cleveland Center
10:26AM 42.9347 -79.1397 231° Southwest 201 231 9,600 1,800 Climbing Cleveland Center
10:27AM 42.9000 -79.2058 234° Southwest 201 231 11,000 1,560 Climbing Cleveland Center
10:28AM 42.7047 -79.0157 188° South  Level FlightAware Approximate
10:28AM 42.8611 -79.2689 230° Southwest 206 237 12,800  Level Cleveland Center
10:29AM 42.8225 -79.3350 231° Southwest 213 245 14,000 600 Climbing Cleveland Center
10:30AM 42.7753 -79.4094 229° Southwest 240 276 14,000  Level Cleveland Center
10:31AM 42.7322 -79.4894 234° Southwest 256 295 14,000  Level Cleveland Center
10:32AM 42.6831 -79.5664 229° Southwest 269 310 14,000  Level Cleveland Center
10:33AM 42.6336 -79.6461 230° Southwest 275 316 14,000  Level Cleveland Center
10:34AM 42.5864 -79.7258 231° Southwest 280 322 14,000  Level Cleveland Center
10:35AM 42.5367 -79.8028 229° Southwest 280 322 14,000  Level Cleveland Center
10:36AM 42.4936 -79.8819 234° Southwest 280 322 14,000  Level Cleveland Center
10:37AM 42.4461 -79.9586 230° Southwest 286 329 14,000  Level Cleveland Center
10:38AM 42.4028 -80.0350 232° Southwest 279 321 14,000  Level Cleveland Center
10:39AM 42.3531 -80.1169 231° Southwest 279 321 14,000  Level Cleveland Center
10:40AM 42.3011 -80.2014 230° Southwest 279 321 14,000 -180 Level Cleveland Center
10:41AM 42.2533 -80.2775 230° Southwest 279 321 13,700 -780 Descending Cleveland Center
10:42AM 42.2036 -80.3561 230° Southwest 279 321 12,500 -1,200 Descending Cleveland Center
10:43AM 42.1578 -80.4319 231° Southwest 279 321 11,300 -1,260 Descending Cleveland Center
10:44AM 42.1183 -80.5075 235° Southwest 269 310 10,000 -1,200 Descending Cleveland Center
10:45AM 42.0831 -80.5719 234° Southwest 257 296 9,000 -660 Descending Cleveland Center
10:46AM 42.0433 -80.6419 233° Southwest 244 281 8,700 -900 Descending Cleveland Center
10:47AM 42.0017 -80.7144 232° Southwest 236 272 7,200 -1,320 Descending Cleveland Center
10:48AM 41.9661 -80.7786 233° Southwest 228 262 6,100 -720 Descending Cleveland Center
10:49AM 41.9389 -80.8233 231° Southwest 219 252 6,000 -120 Descending Cleveland Center
10:50AM 41.9053 -80.8844 234° Southwest 228 262 6,000  Level Cleveland Center
10:51AM 41.8678 -80.9511 233° Southwest 229 264 6,000  Level Cleveland Center
10:52AM 41.8278 -81.0206 232° Southwest 229 264 6,000 -180 Level Cleveland Center
10:53AM 41.7942 -81.0817 234° Southwest 227 261 5,700 -840 Descending Cleveland Center
10:54AM 41.7583 -81.1483 234° Southwest 226 260 4,400 -1,320 Descending Cleveland Center
10:55AM 41.7206 -81.2147 233° Southwest 222 255 3,100 -960 Descending Cleveland Center
10:56AM 41.6783 -81.2864 232° Southwest 219 252 2,500 -300 Descending Cleveland Center
10:57AM 41.6467 -81.3528 237° Southwest 212 244 2,600  Climbing Cleveland Center
10:58AM 41.6214 -81.4219 244° Southwest 206 237 2,600  Level Cleveland Center
10:59AM 41.5875 -81.4825 233° Southwest 205 236 2,600 -180 Level Cleveland Center
11:00AM 41.5536 -81.5378 231° Southwest 153 176 2,300 -660 Descending Cleveland Center
11:01AM 41.5475 -81.5125 108° East 119 137 1,300 -1,140 Descending Cleveland Center